sensor_id;sensor_type;location;lat;lon;timestamp;P1;durP1;ratioP1;P2;durP2;ratioP2
75062;SDS011;63981;51.052;13.754;2023-06-19T00:01:19;586.03;;;301.92;;
75062;SDS011;63981;51.052;13.754;2023-06-19T00:03:46;587.97;;;300.00;;
75062;SDS011;63981;51.052;13.754;2023-06-19T00:06:11;588.17;;;302.00;;
75062;SDS011;63981;51.052;13.754;2023-06-19T00:08:40;591.50;;;303.30;;
75062;SDS011;63981;51.052;13.754;2023-06-19T00:11:06;592.78;;;302.00;;
75062;SDS011;63981;51.052;13.754;2023-06-19T00:13:32;594.60;;;304.58;;
75062;SDS011;63981;51.052;13.754;2023-06-19T00:15:59;589.90;;;300.98;;
75062;SDS011;63981;51.052;13.754;2023-06-19T00:18:26;583.92;;;297.33;;
75062;SDS011;63981;51.052;13.754;2023-06-19T00:20:53;584.78;;;300.27;;
75062;SDS011;63981;51.052;13.754;2023-06-19T00:23:22;582.35;;;298.25;;
75062;SDS011;63981;51.052;13.754;2023-06-19T00:25:48;586.40;;;301.55;;
75062;SDS011;63981;51.052;13.754;2023-06-19T00:28:14;589.88;;;302.75;;
75062;SDS011;63981;51.052;13.754;2023-06-19T00:30:40;584.88;;;301.70;;
75062;SDS011;63981;51.052;13.754;2023-06-19T00:33:07;588.30;;;304.38;;
75062;SDS011;63981;51.052;13.754;2023-06-19T00:35:33;587.60;;;305.55;;
75062;SDS011;63981;51.052;13.754;2023-06-19T00:37:59;590.92;;;305.00;;
75062;SDS011;63981;51.052;13.754;2023-06-19T00:40:28;587.15;;;304.92;;
75062;SDS011;63981;51.052;13.754;2023-06-19T00:42:58;583.47;;;303.58;;
75062;SDS011;63981;51.052;13.754;2023-06-19T00:45:24;585.20;;;303.92;;
75062;SDS011;63981;51.052;13.754;2023-06-19T00:47:54;561.78;;;289.10;;
75062;SDS011;63981;51.052;13.754;2023-06-19T00:50:21;563.47;;;293.90;;
75062;SDS011;63981;51.052;13.754;2023-06-19T00:52:47;564.20;;;289.63;;
75062;SDS011;63981;51.052;13.754;2023-06-19T00:55:13;529.90;;;269.42;;
75062;SDS011;63981;51.052;13.754;2023-06-19T00:57:40;518.60;;;264.67;;
75062;SDS011;63981;51.052;13.754;2023-06-19T01:00:08;521.05;;;266.48;;
75062;SDS011;63981;51.052;13.754;2023-06-19T01:02:36;517.40;;;264.10;;
75062;SDS011;63981;51.052;13.754;2023-06-19T01:05:02;528.90;;;270.10;;
75062;SDS011;63981;51.052;13.754;2023-06-19T01:07:38;513.13;;;262.45;;
75062;SDS011;63981;51.052;13.754;2023-06-19T01:10:15;521.00;;;265.48;;
75062;SDS011;63981;51.052;13.754;2023-06-19T01:12:45;512.30;;;261.75;;
75062;SDS011;63981;51.052;13.754;2023-06-19T01:15:17;518.60;;;264.90;;
75062;SDS011;63981;51.052;13.754;2023-06-19T01:17:45;515.10;;;262.85;;
75062;SDS011;63981;51.052;13.754;2023-06-19T01:20:13;520.03;;;267.88;;
75062;SDS011;63981;51.052;13.754;2023-06-19T01:22:40;522.50;;;266.20;;
75062;SDS011;63981;51.052;13.754;2023-06-19T01:25:09;524.17;;;268.02;;
75062;SDS011;63981;51.052;13.754;2023-06-19T01:27:39;526.65;;;268.73;;
75062;SDS011;63981;51.052;13.754;2023-06-19T01:30:07;523.72;;;269.05;;
75062;SDS011;63981;51.052;13.754;2023-06-19T01:35:17;518.63;;;267.00;;
75062;SDS011;63981;51.052;13.754;2023-06-19T01:37:45;520.17;;;270.45;;
75062;SDS011;63981;51.052;13.754;2023-06-19T01:40:13;519.72;;;266.95;;
75062;SDS011;63981;51.052;13.754;2023-06-19T01:42:40;517.58;;;266.70;;
75062;SDS011;63981;51.052;13.754;2023-06-19T01:45:07;513.28;;;267.98;;
75062;SDS011;63981;51.052;13.754;2023-06-19T01:47:35;515.92;;;264.77;;
75062;SDS011;63981;51.052;13.754;2023-06-19T01:50:02;511.60;;;265.95;;
75062;SDS011;63981;51.052;13.754;2023-06-19T01:52:28;507.17;;;260.42;;
75062;SDS011;63981;51.052;13.754;2023-06-19T01:54:54;508.55;;;260.55;;
75062;SDS011;63981;51.052;13.754;2023-06-19T01:57:20;512.25;;;263.33;;
75062;SDS011;63981;51.052;13.754;2023-06-19T01:59:46;510.60;;;263.45;;
75062;SDS011;63981;51.052;13.754;2023-06-19T02:02:12;512.92;;;265.15;;
75062;SDS011;63981;51.052;13.754;2023-06-19T02:04:38;510.00;;;264.00;;
75062;SDS011;63981;51.052;13.754;2023-06-19T02:07:04;508.80;;;264.25;;
75062;SDS011;63981;51.052;13.754;2023-06-19T02:09:30;507.58;;;264.90;;
75062;SDS011;63981;51.052;13.754;2023-06-19T02:11:56;507.48;;;264.15;;
75062;SDS011;63981;51.052;13.754;2023-06-19T02:14:21;507.95;;;264.45;;
75062;SDS011;63981;51.052;13.754;2023-06-19T02:16:47;507.52;;;264.90;;
75062;SDS011;63981;51.052;13.754;2023-06-19T02:19:13;505.70;;;261.88;;
75062;SDS011;63981;51.052;13.754;2023-06-19T02:21:39;506.40;;;262.08;;
75062;SDS011;63981;51.052;13.754;2023-06-19T02:24:05;504.20;;;262.02;;
75062;SDS011;63981;51.052;13.754;2023-06-19T02:26:31;507.98;;;266.05;;
75062;SDS011;63981;51.052;13.754;2023-06-19T02:28:57;506.88;;;262.50;;
75062;SDS011;63981;51.052;13.754;2023-06-19T02:31:23;506.58;;;265.95;;
75062;SDS011;63981;51.052;13.754;2023-06-19T02:33:49;510.13;;;264.55;;
75062;SDS011;63981;51.052;13.754;2023-06-19T02:36:18;510.23;;;265.77;;
75062;SDS011;63981;51.052;13.754;2023-06-19T02:38:48;510.83;;;265.77;;
75062;SDS011;63981;51.052;13.754;2023-06-19T02:41:14;492.63;;;255.75;;
75062;SDS011;63981;51.052;13.754;2023-06-19T02:43:41;487.92;;;252.15;;
75062;SDS011;63981;51.052;13.754;2023-06-19T02:46:09;487.02;;;252.93;;
75062;SDS011;63981;51.052;13.754;2023-06-19T02:48:34;489.55;;;253.75;;
75062;SDS011;63981;51.052;13.754;2023-06-19T02:51:00;492.48;;;254.57;;
75062;SDS011;63981;51.052;13.754;2023-06-19T02:53:26;493.98;;;257.58;;
75062;SDS011;63981;51.052;13.754;2023-06-19T02:55:52;491.90;;;255.38;;
75062;SDS011;63981;51.052;13.754;2023-06-19T02:58:18;494.67;;;256.42;;
75062;SDS011;63981;51.052;13.754;2023-06-19T03:00:44;493.45;;;255.35;;
75062;SDS011;63981;51.052;13.754;2023-06-19T03:03:10;496.33;;;256.35;;
75062;SDS011;63981;51.052;13.754;2023-06-19T03:05:37;495.15;;;257.38;;
75062;SDS011;63981;51.052;13.754;2023-06-19T03:08:04;495.23;;;257.83;;
75062;SDS011;63981;51.052;13.754;2023-06-19T03:10:30;497.70;;;258.77;;
75062;SDS011;63981;51.052;13.754;2023-06-19T03:12:56;497.63;;;258.30;;
75062;SDS011;63981;51.052;13.754;2023-06-19T03:15:24;496.13;;;257.90;;
75062;SDS011;63981;51.052;13.754;2023-06-19T03:17:52;502.17;;;261.52;;
75062;SDS011;63981;51.052;13.754;2023-06-19T03:20:19;499.08;;;262.00;;
75062;SDS011;63981;51.052;13.754;2023-06-19T03:22:52;503.05;;;259.83;;
75062;SDS011;63981;51.052;13.754;2023-06-19T03:25:19;503.60;;;260.15;;
75062;SDS011;63981;51.052;13.754;2023-06-19T03:27:46;502.63;;;260.27;;
75062;SDS011;63981;51.052;13.754;2023-06-19T03:30:12;502.10;;;260.02;;
75062;SDS011;63981;51.052;13.754;2023-06-19T03:32:40;506.20;;;263.08;;
75062;SDS011;63981;51.052;13.754;2023-06-19T03:35:08;504.40;;;262.05;;
75062;SDS011;63981;51.052;13.754;2023-06-19T03:37:41;505.30;;;262.52;;
75062;SDS011;63981;51.052;13.754;2023-06-19T03:40:07;504.48;;;261.75;;
75062;SDS011;63981;51.052;13.754;2023-06-19T03:42:40;505.30;;;262.33;;
75062;SDS011;63981;51.052;13.754;2023-06-19T03:45:06;503.75;;;260.48;;
75062;SDS011;63981;51.052;13.754;2023-06-19T03:47:32;500.90;;;259.38;;
75062;SDS011;63981;51.052;13.754;2023-06-19T03:49:57;500.50;;;261.63;;
75062;SDS011;63981;51.052;13.754;2023-06-19T03:52:24;502.85;;;259.48;;
75062;SDS011;63981;51.052;13.754;2023-06-19T03:54:49;504.83;;;259.10;;
75062;SDS011;63981;51.052;13.754;2023-06-19T03:57:15;506.25;;;260.48;;
75062;SDS011;63981;51.052;13.754;2023-06-19T03:59:41;505.70;;;260.80;;
75062;SDS011;63981;51.052;13.754;2023-06-19T04:02:09;504.70;;;263.90;;
75062;SDS011;63981;51.052;13.754;2023-06-19T04:04:35;507.88;;;262.90;;
75062;SDS011;63981;51.052;13.754;2023-06-19T04:07:01;509.50;;;263.95;;
75062;SDS011;63981;51.052;13.754;2023-06-19T04:09:27;506.15;;;262.52;;
75062;SDS011;63981;51.052;13.754;2023-06-19T04:11:53;507.33;;;262.85;;
75062;SDS011;63981;51.052;13.754;2023-06-19T04:14:19;504.70;;;259.17;;
75062;SDS011;63981;51.052;13.754;2023-06-19T04:16:45;503.45;;;259.17;;
75062;SDS011;63981;51.052;13.754;2023-06-19T04:19:10;508.15;;;262.00;;
75062;SDS011;63981;51.052;13.754;2023-06-19T04:21:36;507.73;;;260.25;;
75062;SDS011;63981;51.052;13.754;2023-06-19T04:26:31;507.95;;;260.85;;
75062;SDS011;63981;51.052;13.754;2023-06-19T04:28:57;514.38;;;264.35;;
75062;SDS011;63981;51.052;13.754;2023-06-19T04:31:22;517.17;;;264.42;;
75062;SDS011;63981;51.052;13.754;2023-06-19T04:33:48;526.00;;;267.25;;
75062;SDS011;63981;51.052;13.754;2023-06-19T04:36:14;526.03;;;267.77;;
75062;SDS011;63981;51.052;13.754;2023-06-19T04:38:40;526.53;;;269.55;;
75062;SDS011;63981;51.052;13.754;2023-06-19T04:41:24;529.83;;;272.15;;
75062;SDS011;63981;51.052;13.754;2023-06-19T04:43:50;525.95;;;269.85;;
75062;SDS011;63981;51.052;13.754;2023-06-19T04:46:16;530.35;;;270.92;;
75062;SDS011;63981;51.052;13.754;2023-06-19T04:48:45;531.58;;;271.95;;
75062;SDS011;63981;51.052;13.754;2023-06-19T04:51:16;529.67;;;270.65;;
75062;SDS011;63981;51.052;13.754;2023-06-19T04:53:46;528.90;;;269.58;;
75062;SDS011;63981;51.052;13.754;2023-06-19T04:56:13;527.50;;;268.80;;
75062;SDS011;63981;51.052;13.754;2023-06-19T04:58:40;525.28;;;267.80;;
75062;SDS011;63981;51.052;13.754;2023-06-19T05:01:11;521.53;;;268.05;;
75062;SDS011;63981;51.052;13.754;2023-06-19T05:03:38;520.17;;;263.55;;
75062;SDS011;63981;51.052;13.754;2023-06-19T05:06:05;514.22;;;264.27;;
75062;SDS011;63981;51.052;13.754;2023-06-19T05:08:31;514.47;;;260.50;;
75062;SDS011;63981;51.052;13.754;2023-06-19T05:10:56;517.28;;;262.65;;
75062;SDS011;63981;51.052;13.754;2023-06-19T05:13:24;514.38;;;260.02;;
75062;SDS011;63981;51.052;13.754;2023-06-19T05:15:50;514.45;;;259.65;;
75062;SDS011;63981;51.052;13.754;2023-06-19T05:18:16;512.10;;;258.48;;
75062;SDS011;63981;51.052;13.754;2023-06-19T05:20:43;511.30;;;258.05;;
75062;SDS011;63981;51.052;13.754;2023-06-19T05:23:09;523.67;;;264.23;;
75062;SDS011;63981;51.052;13.754;2023-06-19T05:25:35;519.63;;;262.63;;
75062;SDS011;63981;51.052;13.754;2023-06-19T05:28:01;512.25;;;258.55;;
75062;SDS011;63981;51.052;13.754;2023-06-19T05:30:27;522.30;;;265.30;;
75062;SDS011;63981;51.052;13.754;2023-06-19T05:32:53;516.55;;;260.52;;
75062;SDS011;63981;51.052;13.754;2023-06-19T05:35:19;516.58;;;261.60;;
75062;SDS011;63981;51.052;13.754;2023-06-19T05:37:45;516.08;;;260.88;;
75062;SDS011;63981;51.052;13.754;2023-06-19T05:40:11;514.05;;;261.35;;
75062;SDS011;63981;51.052;13.754;2023-06-19T05:42:36;517.67;;;262.58;;
75062;SDS011;63981;51.052;13.754;2023-06-19T05:45:03;524.47;;;264.95;;
75062;SDS011;63981;51.052;13.754;2023-06-19T05:47:29;517.80;;;261.30;;
75062;SDS011;63981;51.052;13.754;2023-06-19T05:49:56;511.00;;;258.42;;
75062;SDS011;63981;51.052;13.754;2023-06-19T05:52:22;512.33;;;258.90;;
75062;SDS011;63981;51.052;13.754;2023-06-19T05:54:48;522.47;;;264.63;;
75062;SDS011;63981;51.052;13.754;2023-06-19T05:57:14;526.03;;;266.42;;
75062;SDS011;63981;51.052;13.754;2023-06-19T05:59:49;546.85;;;270.45;;
75062;SDS011;63981;51.052;13.754;2023-06-19T06:02:16;527.42;;;267.33;;
75062;SDS011;63981;51.052;13.754;2023-06-19T06:04:44;530.42;;;267.13;;
75062;SDS011;63981;51.052;13.754;2023-06-19T06:07:10;535.63;;;268.33;;
75062;SDS011;63981;51.052;13.754;2023-06-19T06:09:35;530.13;;;267.15;;
75062;SDS011;63981;51.052;13.754;2023-06-19T06:12:01;531.17;;;269.20;;
75062;SDS011;63981;51.052;13.754;2023-06-19T06:14:27;530.78;;;267.45;;
75062;SDS011;63981;51.052;13.754;2023-06-19T06:16:53;533.55;;;269.38;;
75062;SDS011;63981;51.052;13.754;2023-06-19T06:19:21;534.03;;;269.33;;
75062;SDS011;63981;51.052;13.754;2023-06-19T06:21:50;537.50;;;271.42;;
75062;SDS011;63981;51.052;13.754;2023-06-19T06:24:16;533.33;;;269.40;;
75062;SDS011;63981;51.052;13.754;2023-06-19T06:26:42;539.05;;;271.42;;
75062;SDS011;63981;51.052;13.754;2023-06-19T06:29:08;543.42;;;274.65;;
75062;SDS011;63981;51.052;13.754;2023-06-19T06:31:34;542.42;;;272.58;;
75062;SDS011;63981;51.052;13.754;2023-06-19T06:34:00;535.55;;;269.92;;
75062;SDS011;63981;51.052;13.754;2023-06-19T06:36:26;536.90;;;271.13;;
75062;SDS011;63981;51.052;13.754;2023-06-19T06:38:51;536.78;;;270.13;;
75062;SDS011;63981;51.052;13.754;2023-06-19T06:41:17;537.83;;;271.20;;
75062;SDS011;63981;51.052;13.754;2023-06-19T06:43:43;540.78;;;271.92;;
75062;SDS011;63981;51.052;13.754;2023-06-19T06:46:09;538.03;;;272.90;;
75062;SDS011;63981;51.052;13.754;2023-06-19T06:48:38;539.75;;;273.38;;
75062;SDS011;63981;51.052;13.754;2023-06-19T06:51:05;539.88;;;272.00;;
75062;SDS011;63981;51.052;13.754;2023-06-19T06:53:31;540.97;;;273.40;;
75062;SDS011;63981;51.052;13.754;2023-06-19T06:55:59;542.92;;;274.90;;
75062;SDS011;63981;51.052;13.754;2023-06-19T06:58:25;544.10;;;275.25;;
75062;SDS011;63981;51.052;13.754;2023-06-19T07:00:52;542.92;;;274.15;;
75062;SDS011;63981;51.052;13.754;2023-06-19T07:03:18;550.03;;;277.48;;
75062;SDS011;63981;51.052;13.754;2023-06-19T07:05:44;550.85;;;277.98;;
75062;SDS011;63981;51.052;13.754;2023-06-19T07:08:10;554.55;;;279.83;;
75062;SDS011;63981;51.052;13.754;2023-06-19T07:10:36;560.20;;;281.52;;
75062;SDS011;63981;51.052;13.754;2023-06-19T07:13:02;563.80;;;283.13;;
75062;SDS011;63981;51.052;13.754;2023-06-19T07:15:28;563.78;;;283.23;;
75062;SDS011;63981;51.052;13.754;2023-06-19T07:17:53;565.20;;;284.70;;
75062;SDS011;63981;51.052;13.754;2023-06-19T07:20:19;564.80;;;284.25;;
75062;SDS011;63981;51.052;13.754;2023-06-19T07:22:45;564.67;;;283.65;;
75062;SDS011;63981;51.052;13.754;2023-06-19T07:25:11;566.38;;;283.88;;
75062;SDS011;63981;51.052;13.754;2023-06-19T07:27:38;560.30;;;281.13;;
75062;SDS011;63981;51.052;13.754;2023-06-19T07:30:06;563.70;;;282.30;;
75062;SDS011;63981;51.052;13.754;2023-06-19T07:32:32;561.42;;;280.67;;
75062;SDS011;63981;51.052;13.754;2023-06-19T07:34:58;583.25;;;293.70;;
75062;SDS011;63981;51.052;13.754;2023-06-19T07:37:24;599.20;;;303.17;;
75062;SDS011;63981;51.052;13.754;2023-06-19T07:39:50;591.83;;;301.92;;
75062;SDS011;63981;51.052;13.754;2023-06-19T07:42:17;650.42;;;333.48;;
75062;SDS011;63981;51.052;13.754;2023-06-19T07:44:44;545.38;;;268.95;;
75062;SDS011;63981;51.052;13.754;2023-06-19T07:47:10;528.03;;;259.35;;
75062;SDS011;63981;51.052;13.754;2023-06-19T07:49:38;503.10;;;246.40;;
75062;SDS011;63981;51.052;13.754;2023-06-19T07:52:05;497.23;;;243.57;;
75062;SDS011;63981;51.052;13.754;2023-06-19T07:54:33;491.67;;;239.77;;
75062;SDS011;63981;51.052;13.754;2023-06-19T07:56:59;489.85;;;241.05;;
75062;SDS011;63981;51.052;13.754;2023-06-19T07:59:25;478.85;;;232.90;;
75062;SDS011;63981;51.052;13.754;2023-06-19T08:01:52;473.23;;;230.95;;
75062;SDS011;63981;51.052;13.754;2023-06-19T08:04:17;467.70;;;228.63;;
75062;SDS011;63981;51.052;13.754;2023-06-19T08:06:43;458.17;;;223.02;;
75062;SDS011;63981;51.052;13.754;2023-06-19T08:09:09;450.60;;;223.10;;
75062;SDS011;63981;51.052;13.754;2023-06-19T08:11:34;448.98;;;218.75;;
75062;SDS011;63981;51.052;13.754;2023-06-19T08:14:02;453.05;;;219.57;;
75062;SDS011;63981;51.052;13.754;2023-06-19T08:16:28;89.80;;;46.70;;
75062;SDS011;63981;51.052;13.754;2023-06-19T08:18:54;4.35;;;3.35;;
75062;SDS011;63981;51.052;13.754;2023-06-19T08:21:19;6.30;;;5.68;;
75062;SDS011;63981;51.052;13.754;2023-06-19T08:23:46;6.55;;;5.72;;
75062;SDS011;63981;51.052;13.754;2023-06-19T08:26:13;6.55;;;5.90;;
75062;SDS011;63981;51.052;13.754;2023-06-19T08:28:39;6.18;;;5.57;;
75062;SDS011;63981;51.052;13.754;2023-06-19T08:31:06;8.60;;;6.75;;
75062;SDS011;63981;51.052;13.754;2023-06-19T08:33:34;7.13;;;5.60;;
75062;SDS011;63981;51.052;13.754;2023-06-19T08:36:00;7.93;;;7.22;;
75062;SDS011;63981;51.052;13.754;2023-06-19T08:38:26;8.90;;;6.68;;
75062;SDS011;63981;51.052;13.754;2023-06-19T08:40:53;8.50;;;6.88;;
75062;SDS011;63981;51.052;13.754;2023-06-19T08:43:20;8.00;;;6.07;;
75062;SDS011;63981;51.052;13.754;2023-06-19T08:48:48;8.00;;;7.28;;
75062;SDS011;63981;51.052;13.754;2023-06-19T08:51:14;7.63;;;5.47;;
75062;SDS011;63981;51.052;13.754;2023-06-19T08:53:44;6.90;;;6.13;;
75062;SDS011;63981;51.052;13.754;2023-06-19T08:56:21;8.85;;;6.97;;
75062;SDS011;63981;51.052;13.754;2023-06-19T08:58:47;8.18;;;6.95;;
75062;SDS011;63981;51.052;13.754;2023-06-19T09:01:16;8.98;;;6.75;;
75062;SDS011;63981;51.052;13.754;2023-06-19T09:03:43;9.32;;;6.78;;
75062;SDS011;63981;51.052;13.754;2023-06-19T09:06:14;6.82;;;6.20;;
75062;SDS011;63981;51.052;13.754;2023-06-19T09:08:41;7.60;;;6.80;;
75062;SDS011;63981;51.052;13.754;2023-06-19T09:11:07;8.82;;;6.68;;
75062;SDS011;63981;51.052;13.754;2023-06-19T09:13:33;7.63;;;6.40;;
75062;SDS011;63981;51.052;13.754;2023-06-19T09:16:02;6.78;;;6.07;;
75062;SDS011;63981;51.052;13.754;2023-06-19T09:18:29;7.28;;;6.38;;
75062;SDS011;63981;51.052;13.754;2023-06-19T09:20:56;7.55;;;6.78;;
75062;SDS011;63981;51.052;13.754;2023-06-19T09:23:23;8.73;;;6.70;;
75062;SDS011;63981;51.052;13.754;2023-06-19T09:25:53;8.02;;;6.85;;
75062;SDS011;63981;51.052;13.754;2023-06-19T09:28:23;8.85;;;6.75;;
75062;SDS011;63981;51.052;13.754;2023-06-19T09:30:54;7.75;;;6.95;;
75062;SDS011;63981;51.052;13.754;2023-06-19T09:33:22;7.80;;;7.05;;
75062;SDS011;63981;51.052;13.754;2023-06-19T09:35:50;7.70;;;6.68;;
75062;SDS011;63981;51.052;13.754;2023-06-19T09:38:17;9.02;;;7.30;;
75062;SDS011;63981;51.052;13.754;2023-06-19T09:40:46;8.82;;;7.10;;
75062;SDS011;63981;51.052;13.754;2023-06-19T09:43:14;10.65;;;6.55;;
75062;SDS011;63981;51.052;13.754;2023-06-19T09:45:49;10.13;;;6.93;;
75062;SDS011;63981;51.052;13.754;2023-06-19T09:48:26;8.80;;;7.53;;
75062;SDS011;63981;51.052;13.754;2023-06-19T09:50:55;6.72;;;6.07;;
75062;SDS011;63981;51.052;13.754;2023-06-19T09:53:26;8.18;;;7.38;;
75062;SDS011;63981;51.052;13.754;2023-06-19T09:55:53;9.07;;;6.95;;
75062;SDS011;63981;51.052;13.754;2023-06-19T09:58:19;7.32;;;6.55;;
75062;SDS011;63981;51.052;13.754;2023-06-19T10:00:46;7.43;;;6.40;;
75062;SDS011;63981;51.052;13.754;2023-06-19T10:03:15;8.93;;;6.72;;
75062;SDS011;63981;51.052;13.754;2023-06-19T10:05:42;8.70;;;7.78;;
75062;SDS011;63981;51.052;13.754;2023-06-19T10:08:08;9.27;;;7.28;;
75062;SDS011;63981;51.052;13.754;2023-06-19T10:10:34;9.50;;;6.65;;
75062;SDS011;63981;51.052;13.754;2023-06-19T10:13:13;10.82;;;6.95;;
75062;SDS011;63981;51.052;13.754;2023-06-19T10:15:41;8.18;;;7.10;;
75062;SDS011;63981;51.052;13.754;2023-06-19T10:20:39;9.05;;;7.88;;
75062;SDS011;63981;51.052;13.754;2023-06-19T10:23:06;7.70;;;6.68;;
75062;SDS011;63981;51.052;13.754;2023-06-19T10:25:46;7.78;;;7.00;;
75062;SDS011;63981;51.052;13.754;2023-06-19T10:30:43;7.90;;;7.10;;
75062;SDS011;63981;51.052;13.754;2023-06-19T10:33:09;10.52;;;8.40;;
75062;SDS011;63981;51.052;13.754;2023-06-19T10:35:38;8.80;;;7.45;;
75062;SDS011;63981;51.052;13.754;2023-06-19T10:38:06;9.55;;;6.82;;
75062;SDS011;63981;51.052;13.754;2023-06-19T10:40:32;7.57;;;6.53;;
75062;SDS011;63981;51.052;13.754;2023-06-19T10:42:58;8.10;;;7.30;;
75062;SDS011;63981;51.052;13.754;2023-06-19T10:45:24;8.13;;;6.75;;
75062;SDS011;63981;51.052;13.754;2023-06-19T10:47:54;7.43;;;6.68;;
75062;SDS011;63981;51.052;13.754;2023-06-19T10:50:20;9.00;;;7.53;;
75062;SDS011;63981;51.052;13.754;2023-06-19T10:52:46;8.18;;;7.38;;
75062;SDS011;63981;51.052;13.754;2023-06-19T10:55:14;8.95;;;7.35;;
75062;SDS011;63981;51.052;13.754;2023-06-19T10:57:44;7.15;;;6.45;;
75062;SDS011;63981;51.052;13.754;2023-06-19T11:00:10;8.23;;;7.28;;
75062;SDS011;63981;51.052;13.754;2023-06-19T11:02:40;7.80;;;7.00;;
75062;SDS011;63981;51.052;13.754;2023-06-19T11:05:11;8.07;;;7.28;;
75062;SDS011;63981;51.052;13.754;2023-06-19T11:07:37;7.28;;;6.57;;
75062;SDS011;63981;51.052;13.754;2023-06-19T11:10:04;9.18;;;6.57;;
75062;SDS011;63981;51.052;13.754;2023-06-19T11:12:30;6.68;;;5.47;;
75062;SDS011;63981;51.052;13.754;2023-06-19T11:14:58;7.95;;;7.10;;
75062;SDS011;63981;51.052;13.754;2023-06-19T11:17:24;7.05;;;6.45;;
75062;SDS011;63981;51.052;13.754;2023-06-19T11:19:50;6.85;;;6.28;;
75062;SDS011;63981;51.052;13.754;2023-06-19T11:22:16;6.82;;;6.22;;
75062;SDS011;63981;51.052;13.754;2023-06-19T11:24:42;8.00;;;7.30;;
75062;SDS011;63981;51.052;13.754;2023-06-19T11:27:15;6.40;;;5.80;;
75062;SDS011;63981;51.052;13.754;2023-06-19T11:29:43;6.40;;;5.80;;
75062;SDS011;63981;51.052;13.754;2023-06-19T11:32:12;7.00;;;6.03;;
75062;SDS011;63981;51.052;13.754;2023-06-19T11:34:39;7.45;;;6.70;;
75062;SDS011;63981;51.052;13.754;2023-06-19T11:37:15;6.35;;;5.85;;
75062;SDS011;63981;51.052;13.754;2023-06-19T11:39:47;6.50;;;5.78;;
75062;SDS011;63981;51.052;13.754;2023-06-19T11:42:17;6.47;;;5.97;;
75062;SDS011;63981;51.052;13.754;2023-06-19T11:44:53;8.27;;;5.63;;
75062;SDS011;63981;51.052;13.754;2023-06-19T11:47:22;6.82;;;6.20;;
75062;SDS011;63981;51.052;13.754;2023-06-19T11:49:51;6.82;;;5.75;;
75062;SDS011;63981;51.052;13.754;2023-06-19T11:52:17;5.97;;;5.45;;
75062;SDS011;63981;51.052;13.754;2023-06-19T11:54:45;5.47;;;4.97;;
75062;SDS011;63981;51.052;13.754;2023-06-19T11:58:14;5.72;;;5.22;;
75062;SDS011;63981;51.052;13.754;2023-06-19T12:00:52;6.07;;;5.47;;
75062;SDS011;63981;51.052;13.754;2023-06-19T12:03:25;6.65;;;5.95;;
75062;SDS011;63981;51.052;13.754;2023-06-19T12:06:02;7.65;;;6.88;;
75062;SDS011;63981;51.052;13.754;2023-06-19T12:08:34;6.68;;;6.18;;
75062;SDS011;63981;51.052;13.754;2023-06-19T12:11:19;7.00;;;6.32;;
75062;SDS011;63981;51.052;13.754;2023-06-19T12:13:51;5.82;;;5.32;;
75062;SDS011;63981;51.052;13.754;2023-06-19T12:16:18;7.45;;;6.75;;
75062;SDS011;63981;51.052;13.754;2023-06-19T12:18:44;6.43;;;5.60;;
75062;SDS011;63981;51.052;13.754;2023-06-19T12:21:26;6.35;;;5.75;;
75062;SDS011;63981;51.052;13.754;2023-06-19T12:24:08;6.20;;;5.70;;
75062;SDS011;63981;51.052;13.754;2023-06-19T12:26:46;6.30;;;5.75;;
75062;SDS011;63981;51.052;13.754;2023-06-19T12:29:20;5.53;;;5.03;;
75062;SDS011;63981;51.052;13.754;2023-06-19T12:31:51;5.70;;;5.10;;
75062;SDS011;63981;51.052;13.754;2023-06-19T12:34:42;5.75;;;5.22;;
75062;SDS011;63981;51.052;13.754;2023-06-19T12:37:17;5.38;;;4.95;;
75062;SDS011;63981;51.052;13.754;2023-06-19T12:39:44;5.82;;;5.20;;
75062;SDS011;63981;51.052;13.754;2023-06-19T12:42:10;5.82;;;5.20;;
75062;SDS011;63981;51.052;13.754;2023-06-19T12:44:39;6.70;;;6.03;;
75062;SDS011;63981;51.052;13.754;2023-06-19T12:47:09;6.32;;;5.72;;
75062;SDS011;63981;51.052;13.754;2023-06-19T12:49:35;6.30;;;5.70;;
75062;SDS011;63981;51.052;13.754;2023-06-19T12:52:01;5.93;;;5.43;;
75062;SDS011;63981;51.052;13.754;2023-06-19T12:54:27;6.07;;;5.47;;
75062;SDS011;63981;51.052;13.754;2023-06-19T12:56:53;6.95;;;5.72;;
75062;SDS011;63981;51.052;13.754;2023-06-19T12:59:19;6.60;;;5.72;;
75062;SDS011;63981;51.052;13.754;2023-06-19T13:01:45;5.72;;;5.00;;
75062;SDS011;63981;51.052;13.754;2023-06-19T13:04:12;6.05;;;5.55;;
75062;SDS011;63981;51.052;13.754;2023-06-19T13:06:38;6.90;;;5.57;;
75062;SDS011;63981;51.052;13.754;2023-06-19T13:09:04;6.25;;;5.72;;
75062;SDS011;63981;51.052;13.754;2023-06-19T13:11:31;6.00;;;5.50;;
75062;SDS011;63981;51.052;13.754;2023-06-19T13:14:00;6.18;;;5.55;;
75062;SDS011;63981;51.052;13.754;2023-06-19T13:16:26;6.90;;;6.20;;
75062;SDS011;63981;51.052;13.754;2023-06-19T13:18:52;7.93;;;6.13;;
75062;SDS011;63981;51.052;13.754;2023-06-19T13:21:18;6.53;;;5.93;;
75062;SDS011;63981;51.052;13.754;2023-06-19T13:23:44;7.90;;;7.10;;
75062;SDS011;63981;51.052;13.754;2023-06-19T13:26:10;6.68;;;5.93;;
75062;SDS011;63981;51.052;13.754;2023-06-19T13:28:36;9.32;;;6.50;;
75062;SDS011;63981;51.052;13.754;2023-06-19T13:31:02;8.80;;;6.70;;
75062;SDS011;63981;51.052;13.754;2023-06-19T13:33:28;7.07;;;6.43;;
75062;SDS011;63981;51.052;13.754;2023-06-19T13:35:54;7.78;;;6.97;;
75062;SDS011;63981;51.052;13.754;2023-06-19T13:38:21;7.88;;;6.80;;
75062;SDS011;63981;51.052;13.754;2023-06-19T13:40:46;7.55;;;6.78;;
75062;SDS011;63981;51.052;13.754;2023-06-19T13:43:13;7.13;;;6.40;;
75062;SDS011;63981;51.052;13.754;2023-06-19T13:45:39;7.38;;;6.68;;
75062;SDS011;63981;51.052;13.754;2023-06-19T13:48:06;9.43;;;7.15;;
75062;SDS011;63981;51.052;13.754;2023-06-19T13:50:32;8.93;;;6.60;;
75062;SDS011;63981;51.052;13.754;2023-06-19T13:52:58;8.43;;;6.90;;
75062;SDS011;63981;51.052;13.754;2023-06-19T13:55:24;7.45;;;6.72;;
75062;SDS011;63981;51.052;13.754;2023-06-19T13:57:50;8.07;;;7.30;;
75062;SDS011;63981;51.052;13.754;2023-06-19T14:02:45;9.20;;;7.82;;
75062;SDS011;63981;51.052;13.754;2023-06-19T14:05:11;8.13;;;7.38;;
75062;SDS011;63981;51.052;13.754;2023-06-19T14:07:40;7.57;;;6.85;;
75062;SDS011;63981;51.052;13.754;2023-06-19T14:10:06;9.35;;;7.32;;
75062;SDS011;63981;51.052;13.754;2023-06-19T14:12:32;8.75;;;7.95;;
75062;SDS011;63981;51.052;13.754;2023-06-19T14:14:58;9.55;;;8.05;;
75062;SDS011;63981;51.052;13.754;2023-06-19T14:17:24;8.93;;;7.95;;
75062;SDS011;63981;51.052;13.754;2023-06-19T14:19:50;8.73;;;7.97;;
75062;SDS011;63981;51.052;13.754;2023-06-19T14:22:20;8.20;;;7.45;;